メインページ
METAR-TAF:

METAR-TAF

空港 :

チュニス・カルタゴ国際空港

チュニス, チュニジア

緯度: 36-50N, 経度: 010-14E, 海抜: 3m

現時点の気象観測

当レポートは40分前の18:30(UTC)に作成
無風
気温 21°C
湿度 94%
気圧 1015 hPa
視程: 8000m
高度2600ftの雲は散在している
高度3000ftの雲はほとんどない, 積乱雲.

METAR: DTTA 191830Z 00000KT 8000 SCT026 FEW030CB 21/20 Q1015 NOSIG

時間: 20:10 (19:10 UTC)

予報

当レポートは2時間10分前の17:00(UTC)に作成
予報は19日の 18時(UTC)から 20日の 18時(UTC)まで有効
西/北西の風 10kt
視程: 8000m
高度2600ftの雲はほとんどない, 塔状積雲.
高度3000ftの雲はほとんどない, 積乱雲.
19日の 20時(UTC)から 19日の 23時(UTC)まで一時的に
変向風 39kt
視程: 4000m
高度2600ftの雲は散在している, 塔状積雲.
高度3000ftの雲はほとんどない, 積乱雲.
激しい雷雨, 雨
確率 40% :
20日の 08時(UTC)から 20日の 15時(UTC)まで一時的に
北/北西の風 20kt、最大30ktの突風を伴う
視程: 4000m
高度3000ftの雲はほとんどない, 積乱雲.
激しい雷雨, 弱いにわか雨

TAF: DTTA 191700Z 1918/2018 30010KT 8000 FEW026TCU FEW030CB TEMPO 1920/1923 VRB39KT 4000 TSRA SCT026TCU FEW030CB PROB40 TEMPO 2008/2015 33020G30KT 4000 TS -SHRA FEW030CB

4,000以上の空港の気象観測と天気予報(METAR報とTAF報)

利用可能な観測所は地図上に黄色い丸と赤い丸で示す。

丸の上にカーソルを重ねると観測所名を参照できる。

次にクリックすると気象観測と天気予報を参照できる。

マップの切り替え:黒色「×」印の緑ボタンをクリックして拡大、「-」印の緑ボタンをクリックして縮小、緑色の三角印をクリックして隣りの地図に切り替え


METAR-TAF: